sensor_id;sensor_type;location;lat;lon;timestamp;P1;durP1;ratioP1;P2;durP2;ratioP2
22614;SDS011;11474;50.790;0.298;2022-11-15T00:02:12;6.03;;;1.55;;
22614;SDS011;11474;50.790;0.298;2022-11-15T00:04:38;12.43;;;1.60;;
22614;SDS011;11474;50.790;0.298;2022-11-15T00:07:04;7.57;;;1.40;;
22614;SDS011;11474;50.790;0.298;2022-11-15T00:09:30;10.43;;;2.10;;
22614;SDS011;11474;50.790;0.298;2022-11-15T00:11:56;9.98;;;1.88;;
22614;SDS011;11474;50.790;0.298;2022-11-15T00:14:23;12.20;;;2.20;;
22614;SDS011;11474;50.790;0.298;2022-11-15T00:16:49;9.38;;;1.90;;
22614;SDS011;11474;50.790;0.298;2022-11-15T00:19:15;12.47;;;1.90;;
22614;SDS011;11474;50.790;0.298;2022-11-15T00:21:41;9.35;;;1.70;;
22614;SDS011;11474;50.790;0.298;2022-11-15T00:24:07;7.85;;;1.90;;
22614;SDS011;11474;50.790;0.298;2022-11-15T00:26:34;10.45;;;1.98;;
22614;SDS011;11474;50.790;0.298;2022-11-15T00:29:00;8.90;;;1.83;;
22614;SDS011;11474;50.790;0.298;2022-11-15T00:31:26;8.55;;;2.03;;
22614;SDS011;11474;50.790;0.298;2022-11-15T00:33:52;12.05;;;1.90;;
22614;SDS011;11474;50.790;0.298;2022-11-15T00:36:18;9.68;;;2.22;;
22614;SDS011;11474;50.790;0.298;2022-11-15T00:38:44;8.00;;;1.63;;
22614;SDS011;11474;50.790;0.298;2022-11-15T00:41:10;12.23;;;2.28;;
22614;SDS011;11474;50.790;0.298;2022-11-15T00:43:36;13.30;;;2.05;;
22614;SDS011;11474;50.790;0.298;2022-11-15T00:46:04;8.55;;;1.95;;
22614;SDS011;11474;50.790;0.298;2022-11-15T00:48:31;11.53;;;2.40;;
22614;SDS011;11474;50.790;0.298;2022-11-15T00:50:57;8.55;;;1.85;;
22614;SDS011;11474;50.790;0.298;2022-11-15T00:53:23;12.00;;;2.05;;
22614;SDS011;11474;50.790;0.298;2022-11-15T00:55:49;8.02;;;1.90;;
22614;SDS011;11474;50.790;0.298;2022-11-15T00:58:15;10.93;;;2.13;;
22614;SDS011;11474;50.790;0.298;2022-11-15T01:00:41;8.18;;;1.92;;
22614;SDS011;11474;50.790;0.298;2022-11-15T01:03:07;13.67;;;2.00;;
22614;SDS011;11474;50.790;0.298;2022-11-15T01:05:33;12.20;;;2.20;;
22614;SDS011;11474;50.790;0.298;2022-11-15T01:07:59;11.00;;;2.00;;
22614;SDS011;11474;50.790;0.298;2022-11-15T01:10:25;10.27;;;2.03;;
22614;SDS011;11474;50.790;0.298;2022-11-15T01:12:51;7.43;;;1.60;;
22614;SDS011;11474;50.790;0.298;2022-11-15T01:15:17;12.10;;;2.03;;
22614;SDS011;11474;50.790;0.298;2022-11-15T01:17:43;10.48;;;2.30;;
22614;SDS011;11474;50.790;0.298;2022-11-15T01:20:10;8.63;;;1.83;;
22614;SDS011;11474;50.790;0.298;2022-11-15T01:22:36;10.38;;;1.80;;
22614;SDS011;11474;50.790;0.298;2022-11-15T01:25:02;8.02;;;2.33;;
22614;SDS011;11474;50.790;0.298;2022-11-15T01:27:28;11.15;;;2.00;;
22614;SDS011;11474;50.790;0.298;2022-11-15T01:29:54;14.75;;;2.40;;
22614;SDS011;11474;50.790;0.298;2022-11-15T01:32:20;12.02;;;2.17;;
22614;SDS011;11474;50.790;0.298;2022-11-15T01:34:46;13.98;;;2.85;;
22614;SDS011;11474;50.790;0.298;2022-11-15T01:37:12;13.70;;;2.00;;
22614;SDS011;11474;50.790;0.298;2022-11-15T01:39:38;15.52;;;2.45;;
22614;SDS011;11474;50.790;0.298;2022-11-15T01:42:04;17.38;;;3.45;;
22614;SDS011;11474;50.790;0.298;2022-11-15T01:46:56;13.20;;;2.20;;
22614;SDS011;11474;50.790;0.298;2022-11-15T01:49:23;12.98;;;2.20;;
22614;SDS011;11474;50.790;0.298;2022-11-15T01:51:49;12.63;;;2.47;;
22614;SDS011;11474;50.790;0.298;2022-11-15T01:54:16;21.07;;;2.63;;
22614;SDS011;11474;50.790;0.298;2022-11-15T01:57:04;14.82;;;2.30;;
22614;SDS011;11474;50.790;0.298;2022-11-15T01:59:32;19.35;;;2.67;;
22614;SDS011;11474;50.790;0.298;2022-11-15T02:01:58;13.63;;;2.73;;
22614;SDS011;11474;50.790;0.298;2022-11-15T02:04:25;11.88;;;2.63;;
22614;SDS011;11474;50.790;0.298;2022-11-15T02:06:52;19.70;;;2.80;;
22614;SDS011;11474;50.790;0.298;2022-11-15T02:09:18;15.43;;;2.40;;
22614;SDS011;11474;50.790;0.298;2022-11-15T02:11:44;14.52;;;2.58;;
22614;SDS011;11474;50.790;0.298;2022-11-15T02:14:11;14.63;;;2.55;;
22614;SDS011;11474;50.790;0.298;2022-11-15T02:24:39;14.07;;;2.83;;
22614;SDS011;11474;50.790;0.298;2022-11-15T02:32:57;15.32;;;2.78;;
22614;SDS011;11474;50.790;0.298;2022-11-15T02:40:53;19.75;;;3.13;;
22614;SDS011;11474;50.790;0.298;2022-11-15T02:49:16;11.80;;;2.73;;
22614;SDS011;11474;50.790;0.298;2022-11-15T02:51:42;19.85;;;2.88;;
22614;SDS011;11474;50.790;0.298;2022-11-15T02:54:14;18.08;;;3.13;;
22614;SDS011;11474;50.790;0.298;2022-11-15T02:56:41;16.00;;;2.97;;
22614;SDS011;11474;50.790;0.298;2022-11-15T02:59:12;19.27;;;2.80;;
22614;SDS011;11474;50.790;0.298;2022-11-15T03:04:49;18.00;;;3.80;;
22614;SDS011;11474;50.790;0.298;2022-11-15T03:07:20;14.95;;;2.72;;
22614;SDS011;11474;50.790;0.298;2022-11-15T03:09:51;19.90;;;3.30;;
22614;SDS011;11474;50.790;0.298;2022-11-15T03:14:53;17.35;;;3.03;;
22614;SDS011;11474;50.790;0.298;2022-11-15T03:19:47;20.20;;;3.10;;
22614;SDS011;11474;50.790;0.298;2022-11-15T03:22:16;22.48;;;3.78;;
22614;SDS011;11474;50.790;0.298;2022-11-15T03:24:43;23.83;;;3.20;;
22614;SDS011;11474;50.790;0.298;2022-11-15T03:27:12;20.90;;;3.45;;
22614;SDS011;11474;50.790;0.298;2022-11-15T03:29:43;26.80;;;3.83;;
22614;SDS011;11474;50.790;0.298;2022-11-15T03:32:14;23.67;;;3.75;;
22614;SDS011;11474;50.790;0.298;2022-11-15T03:34:43;17.35;;;3.50;;
22614;SDS011;11474;50.790;0.298;2022-11-15T03:37:10;15.88;;;2.75;;
22614;SDS011;11474;50.790;0.298;2022-11-15T03:39:37;21.90;;;3.55;;
22614;SDS011;11474;50.790;0.298;2022-11-15T03:42:07;19.98;;;3.50;;
22614;SDS011;11474;50.790;0.298;2022-11-15T03:47:32;19.63;;;3.28;;
22614;SDS011;11474;50.790;0.298;2022-11-15T03:50:05;16.10;;;2.65;;
22614;SDS011;11474;50.790;0.298;2022-11-15T03:52:33;16.65;;;3.20;;
22614;SDS011;11474;50.790;0.298;2022-11-15T03:55:00;13.77;;;2.78;;
22614;SDS011;11474;50.790;0.298;2022-11-15T03:57:27;13.27;;;2.90;;
22614;SDS011;11474;50.790;0.298;2022-11-15T03:59:53;16.20;;;2.90;;
22614;SDS011;11474;50.790;0.298;2022-11-15T04:02:19;19.10;;;3.47;;
22614;SDS011;11474;50.790;0.298;2022-11-15T04:04:45;22.50;;;3.20;;
22614;SDS011;11474;50.790;0.298;2022-11-15T04:07:11;15.98;;;2.78;;
22614;SDS011;11474;50.790;0.298;2022-11-15T04:09:37;16.50;;;3.30;;
22614;SDS011;11474;50.790;0.298;2022-11-15T04:12:23;19.95;;;3.42;;
22614;SDS011;11474;50.790;0.298;2022-11-15T04:15:29;16.73;;;3.20;;
22614;SDS011;11474;50.790;0.298;2022-11-15T04:17:52;19.83;;;3.47;;
22614;SDS011;11474;50.790;0.298;2022-11-15T04:23:16;15.32;;;3.13;;
22614;SDS011;11474;50.790;0.298;2022-11-15T04:26:02;15.97;;;2.73;;
22614;SDS011;11474;50.790;0.298;2022-11-15T04:28:29;18.98;;;3.33;;
22614;SDS011;11474;50.790;0.298;2022-11-15T04:30:55;17.38;;;3.20;;
22614;SDS011;11474;50.790;0.298;2022-11-15T04:33:22;24.23;;;3.50;;
22614;SDS011;11474;50.790;0.298;2022-11-15T04:35:48;14.50;;;2.90;;
22614;SDS011;11474;50.790;0.298;2022-11-15T04:38:33;17.33;;;3.13;;
22614;SDS011;11474;50.790;0.298;2022-11-15T04:40:59;18.93;;;3.27;;
22614;SDS011;11474;50.790;0.298;2022-11-15T04:43:25;21.85;;;3.42;;
22614;SDS011;11474;50.790;0.298;2022-11-15T04:45:51;22.03;;;3.70;;
22614;SDS011;11474;50.790;0.298;2022-11-15T04:48:17;16.48;;;3.10;;
22614;SDS011;11474;50.790;0.298;2022-11-15T04:50:43;24.15;;;3.67;;
22614;SDS011;11474;50.790;0.298;2022-11-15T04:53:09;21.67;;;3.25;;
22614;SDS011;11474;50.790;0.298;2022-11-15T04:55:35;16.10;;;3.00;;
22614;SDS011;11474;50.790;0.298;2022-11-15T04:58:01;20.13;;;3.23;;
22614;SDS011;11474;50.790;0.298;2022-11-15T05:00:28;23.70;;;3.35;;
22614;SDS011;11474;50.790;0.298;2022-11-15T05:02:54;17.38;;;3.58;;
22614;SDS011;11474;50.790;0.298;2022-11-15T05:05:39;21.80;;;3.58;;
22614;SDS011;11474;50.790;0.298;2022-11-15T05:08:05;16.83;;;3.35;;
22614;SDS011;11474;50.790;0.298;2022-11-15T05:10:31;20.00;;;3.17;;
22614;SDS011;11474;50.790;0.298;2022-11-15T05:12:57;17.63;;;3.30;;
22614;SDS011;11474;50.790;0.298;2022-11-15T05:15:23;22.95;;;3.90;;
22614;SDS011;11474;50.790;0.298;2022-11-15T05:17:49;24.50;;;3.78;;
22614;SDS011;11474;50.790;0.298;2022-11-15T05:20:15;15.50;;;2.85;;
22614;SDS011;11474;50.790;0.298;2022-11-15T05:22:41;20.80;;;3.57;;
22614;SDS011;11474;50.790;0.298;2022-11-15T05:25:07;17.83;;;3.08;;
22614;SDS011;11474;50.790;0.298;2022-11-15T05:27:34;17.53;;;2.97;;
22614;SDS011;11474;50.790;0.298;2022-11-15T05:30:00;17.48;;;3.10;;
22614;SDS011;11474;50.790;0.298;2022-11-15T05:32:27;20.52;;;3.20;;
22614;SDS011;11474;50.790;0.298;2022-11-15T05:34:54;21.27;;;3.60;;
22614;SDS011;11474;50.790;0.298;2022-11-15T05:37:20;16.95;;;3.17;;
22614;SDS011;11474;50.790;0.298;2022-11-15T05:39:46;22.35;;;3.90;;
22614;SDS011;11474;50.790;0.298;2022-11-15T05:42:13;17.87;;;3.40;;
22614;SDS011;11474;50.790;0.298;2022-11-15T05:44:41;16.60;;;3.22;;
22614;SDS011;11474;50.790;0.298;2022-11-15T05:47:08;20.58;;;3.97;;
22614;SDS011;11474;50.790;0.298;2022-11-15T05:49:35;19.05;;;3.58;;
22614;SDS011;11474;50.790;0.298;2022-11-15T05:52:03;19.50;;;3.03;;
22614;SDS011;11474;50.790;0.298;2022-11-15T05:54:30;19.25;;;3.45;;
22614;SDS011;11474;50.790;0.298;2022-11-15T05:56:57;21.48;;;4.05;;
22614;SDS011;11474;50.790;0.298;2022-11-15T05:59:24;27.57;;;4.80;;
22614;SDS011;11474;50.790;0.298;2022-11-15T06:01:51;18.67;;;3.85;;
22614;SDS011;11474;50.790;0.298;2022-11-15T06:04:17;22.63;;;3.55;;
22614;SDS011;11474;50.790;0.298;2022-11-15T06:06:43;18.38;;;3.70;;
22614;SDS011;11474;50.790;0.298;2022-11-15T06:09:09;21.53;;;3.90;;
22614;SDS011;11474;50.790;0.298;2022-11-15T06:11:35;16.42;;;3.55;;
22614;SDS011;11474;50.790;0.298;2022-11-15T06:14:01;20.40;;;3.42;;
22614;SDS011;11474;50.790;0.298;2022-11-15T06:16:27;18.40;;;3.67;;
22614;SDS011;11474;50.790;0.298;2022-11-15T06:18:53;25.63;;;3.28;;
22614;SDS011;11474;50.790;0.298;2022-11-15T06:21:19;20.40;;;3.60;;
22614;SDS011;11474;50.790;0.298;2022-11-15T06:23:45;25.50;;;4.05;;
22614;SDS011;11474;50.790;0.298;2022-11-15T06:26:11;25.65;;;3.92;;
22614;SDS011;11474;50.790;0.298;2022-11-15T06:28:37;23.13;;;4.13;;
22614;SDS011;11474;50.790;0.298;2022-11-15T06:31:04;21.58;;;3.67;;
22614;SDS011;11474;50.790;0.298;2022-11-15T06:33:31;24.52;;;3.72;;
22614;SDS011;11474;50.790;0.298;2022-11-15T06:36:03;21.87;;;4.40;;
22614;SDS011;11474;50.790;0.298;2022-11-15T06:38:30;18.40;;;2.88;;
22614;SDS011;11474;50.790;0.298;2022-11-15T06:41:03;22.97;;;4.00;;
22614;SDS011;11474;50.790;0.298;2022-11-15T06:43:29;20.70;;;3.75;;
22614;SDS011;11474;50.790;0.298;2022-11-15T06:45:57;19.88;;;3.25;;
22614;SDS011;11474;50.790;0.298;2022-11-15T06:48:24;19.67;;;3.95;;
22614;SDS011;11474;50.790;0.298;2022-11-15T06:50:53;25.42;;;4.20;;
22614;SDS011;11474;50.790;0.298;2022-11-15T06:53:20;25.90;;;4.13;;
22614;SDS011;11474;50.790;0.298;2022-11-15T06:55:46;22.92;;;3.90;;
22614;SDS011;11474;50.790;0.298;2022-11-15T06:58:12;17.80;;;3.47;;
22614;SDS011;11474;50.790;0.298;2022-11-15T07:00:38;24.48;;;3.90;;
22614;SDS011;11474;50.790;0.298;2022-11-15T07:03:05;17.38;;;3.63;;
22614;SDS011;11474;50.790;0.298;2022-11-15T07:05:31;18.13;;;3.78;;
22614;SDS011;11474;50.790;0.298;2022-11-15T07:07:57;22.50;;;4.40;;
22614;SDS011;11474;50.790;0.298;2022-11-15T07:10:24;24.50;;;4.22;;
22614;SDS011;11474;50.790;0.298;2022-11-15T07:12:51;25.80;;;4.40;;
22614;SDS011;11474;50.790;0.298;2022-11-15T07:15:17;26.10;;;4.35;;
22614;SDS011;11474;50.790;0.298;2022-11-15T07:17:43;24.77;;;4.05;;
22614;SDS011;11474;50.790;0.298;2022-11-15T07:20:10;24.80;;;4.28;;
22614;SDS011;11474;50.790;0.298;2022-11-15T07:22:36;28.75;;;4.10;;
22614;SDS011;11474;50.790;0.298;2022-11-15T07:25:02;22.77;;;4.57;;
22614;SDS011;11474;50.790;0.298;2022-11-15T07:27:28;24.10;;;4.32;;
22614;SDS011;11474;50.790;0.298;2022-11-15T07:29:54;21.05;;;3.72;;
22614;SDS011;11474;50.790;0.298;2022-11-15T07:32:20;28.17;;;4.43;;
22614;SDS011;11474;50.790;0.298;2022-11-15T07:34:46;27.67;;;4.15;;
22614;SDS011;11474;50.790;0.298;2022-11-15T07:37:12;26.20;;;4.47;;
22614;SDS011;11474;50.790;0.298;2022-11-15T07:39:38;23.30;;;3.75;;
22614;SDS011;11474;50.790;0.298;2022-11-15T07:42:05;25.98;;;4.20;;
22614;SDS011;11474;50.790;0.298;2022-11-15T07:44:50;20.97;;;4.80;;
22614;SDS011;11474;50.790;0.298;2022-11-15T07:47:16;22.92;;;4.10;;
22614;SDS011;11474;50.790;0.298;2022-11-15T07:49:42;19.15;;;3.80;;
22614;SDS011;11474;50.790;0.298;2022-11-15T07:52:08;24.67;;;4.05;;
22614;SDS011;11474;50.790;0.298;2022-11-15T07:54:34;24.90;;;4.30;;
22614;SDS011;11474;50.790;0.298;2022-11-15T07:57:00;28.33;;;5.55;;
22614;SDS011;11474;50.790;0.298;2022-11-15T07:59:26;29.27;;;4.47;;
22614;SDS011;11474;50.790;0.298;2022-11-15T08:01:52;31.70;;;5.53;;
22614;SDS011;11474;50.790;0.298;2022-11-15T08:04:18;24.33;;;4.60;;
22614;SDS011;11474;50.790;0.298;2022-11-15T08:06:44;29.75;;;5.50;;
22614;SDS011;11474;50.790;0.298;2022-11-15T08:09:11;23.80;;;4.22;;
22614;SDS011;11474;50.790;0.298;2022-11-15T08:11:37;29.27;;;5.60;;
22614;SDS011;11474;50.790;0.298;2022-11-15T08:14:03;27.55;;;4.30;;
22614;SDS011;11474;50.790;0.298;2022-11-15T08:16:29;35.97;;;5.60;;
22614;SDS011;11474;50.790;0.298;2022-11-15T08:18:55;32.42;;;5.60;;
22614;SDS011;11474;50.790;0.298;2022-11-15T08:21:21;28.63;;;4.63;;
22614;SDS011;11474;50.790;0.298;2022-11-15T08:23:48;27.67;;;4.85;;
22614;SDS011;11474;50.790;0.298;2022-11-15T08:26:14;31.63;;;5.57;;
22614;SDS011;11474;50.790;0.298;2022-11-15T08:28:41;26.30;;;5.45;;
22614;SDS011;11474;50.790;0.298;2022-11-15T08:31:11;28.05;;;4.53;;
22614;SDS011;11474;50.790;0.298;2022-11-15T08:33:39;27.65;;;4.80;;
22614;SDS011;11474;50.790;0.298;2022-11-15T08:36:05;31.95;;;4.72;;
22614;SDS011;11474;50.790;0.298;2022-11-15T08:38:31;25.80;;;4.30;;
22614;SDS011;11474;50.790;0.298;2022-11-15T08:41:03;32.55;;;5.13;;
22614;SDS011;11474;50.790;0.298;2022-11-15T08:43:29;23.55;;;4.10;;
22614;SDS011;11474;50.790;0.298;2022-11-15T08:45:56;28.48;;;4.93;;
22614;SDS011;11474;50.790;0.298;2022-11-15T08:48:22;35.75;;;5.78;;
22614;SDS011;11474;50.790;0.298;2022-11-15T08:50:48;25.25;;;5.15;;
22614;SDS011;11474;50.790;0.298;2022-11-15T08:53:14;21.45;;;3.75;;
22614;SDS011;11474;50.790;0.298;2022-11-15T08:55:40;30.00;;;4.57;;
22614;SDS011;11474;50.790;0.298;2022-11-15T08:58:07;31.35;;;5.55;;
22614;SDS011;11474;50.790;0.298;2022-11-15T09:00:33;23.92;;;4.30;;
22614;SDS011;11474;50.790;0.298;2022-11-15T09:02:59;33.85;;;5.60;;
22614;SDS011;11474;50.790;0.298;2022-11-15T09:05:25;37.25;;;5.80;;
22614;SDS011;11474;50.790;0.298;2022-11-15T09:07:54;39.30;;;5.80;;
22614;SDS011;11474;50.790;0.298;2022-11-15T09:10:21;38.33;;;6.30;;
22614;SDS011;11474;50.790;0.298;2022-11-15T09:12:47;39.08;;;5.88;;
22614;SDS011;11474;50.790;0.298;2022-11-15T09:15:14;39.00;;;6.53;;
22614;SDS011;11474;50.790;0.298;2022-11-15T09:17:41;35.60;;;6.13;;
22614;SDS011;11474;50.790;0.298;2022-11-15T09:20:07;46.92;;;7.45;;
22614;SDS011;11474;50.790;0.298;2022-11-15T09:22:34;44.93;;;7.40;;
22614;SDS011;11474;50.790;0.298;2022-11-15T09:25:02;36.88;;;6.60;;
22614;SDS011;11474;50.790;0.298;2022-11-15T09:27:28;41.55;;;6.85;;
22614;SDS011;11474;50.790;0.298;2022-11-15T09:29:55;42.78;;;6.85;;
22614;SDS011;11474;50.790;0.298;2022-11-15T09:32:21;33.97;;;6.00;;
22614;SDS011;11474;50.790;0.298;2022-11-15T09:34:48;31.20;;;5.30;;
22614;SDS011;11474;50.790;0.298;2022-11-15T09:37:15;39.17;;;5.75;;
22614;SDS011;11474;50.790;0.298;2022-11-15T09:39:41;28.60;;;4.70;;
22614;SDS011;11474;50.790;0.298;2022-11-15T09:49:58;37.50;;;6.80;;
22614;SDS011;11474;50.790;0.298;2022-11-15T09:52:25;40.95;;;7.38;;
22614;SDS011;11474;50.790;0.298;2022-11-15T09:54:51;34.63;;;5.68;;
22614;SDS011;11474;50.790;0.298;2022-11-15T10:00:48;31.85;;;5.60;;
22614;SDS011;11474;50.790;0.298;2022-11-15T10:05:37;34.13;;;5.45;;
22614;SDS011;11474;50.790;0.298;2022-11-15T10:10:43;35.08;;;5.47;;
22614;SDS011;11474;50.790;0.298;2022-11-15T10:13:24;37.95;;;7.07;;
22614;SDS011;11474;50.790;0.298;2022-11-15T10:15:51;36.85;;;5.82;;
22614;SDS011;11474;50.790;0.298;2022-11-15T10:18:21;28.98;;;4.57;;
22614;SDS011;11474;50.790;0.298;2022-11-15T10:20:58;35.47;;;5.97;;
22614;SDS011;11474;50.790;0.298;2022-11-15T10:23:25;40.42;;;6.70;;
22614;SDS011;11474;50.790;0.298;2022-11-15T10:25:57;28.63;;;4.68;;
22614;SDS011;11474;50.790;0.298;2022-11-15T10:28:29;36.90;;;6.70;;
22614;SDS011;11474;50.790;0.298;2022-11-15T10:30:57;30.45;;;5.57;;
22614;SDS011;11474;50.790;0.298;2022-11-15T10:36:14;24.90;;;4.05;;
22614;SDS011;11474;50.790;0.298;2022-11-15T10:41:14;23.35;;;4.07;;
22614;SDS011;11474;50.790;0.298;2022-11-15T10:43:41;29.55;;;4.75;;
22614;SDS011;11474;50.790;0.298;2022-11-15T10:46:20;34.13;;;5.22;;
22614;SDS011;11474;50.790;0.298;2022-11-15T10:48:46;28.00;;;4.50;;
22614;SDS011;11474;50.790;0.298;2022-11-15T10:51:19;23.30;;;4.95;;
22614;SDS011;11474;50.790;0.298;2022-11-15T10:53:47;30.13;;;5.18;;
22614;SDS011;11474;50.790;0.298;2022-11-15T10:56:14;29.73;;;4.82;;
22614;SDS011;11474;50.790;0.298;2022-11-15T10:58:44;33.45;;;5.47;;
22614;SDS011;11474;50.790;0.298;2022-11-15T11:01:19;30.67;;;4.63;;
22614;SDS011;11474;50.790;0.298;2022-11-15T11:06:28;38.78;;;6.30;;
22614;SDS011;11474;50.790;0.298;2022-11-15T11:08:59;33.65;;;4.75;;
22614;SDS011;11474;50.790;0.298;2022-11-15T11:11:28;30.90;;;5.50;;
22614;SDS011;11474;50.790;0.298;2022-11-15T11:14:51;36.60;;;6.65;;
22614;SDS011;11474;50.790;0.298;2022-11-15T11:17:13;28.27;;;5.22;;
22614;SDS011;11474;50.790;0.298;2022-11-15T11:19:46;28.83;;;5.32;;
22614;SDS011;11474;50.790;0.298;2022-11-15T11:22:17;29.45;;;5.72;;
22614;SDS011;11474;50.790;0.298;2022-11-15T11:37:30;27.65;;;4.75;;
22614;SDS011;11474;50.790;0.298;2022-11-15T11:40:13;28.27;;;5.03;;
22614;SDS011;11474;50.790;0.298;2022-11-15T11:50:34;24.77;;;4.43;;
22614;SDS011;11474;50.790;0.298;2022-11-15T11:53:11;30.88;;;4.93;;
22614;SDS011;11474;50.790;0.298;2022-11-15T11:55:42;31.88;;;4.88;;
22614;SDS011;11474;50.790;0.298;2022-11-15T12:00:37;45.28;;;6.65;;
22614;SDS011;11474;50.790;0.298;2022-11-15T12:03:16;34.88;;;5.75;;
22614;SDS011;11474;50.790;0.298;2022-11-15T12:05:47;34.33;;;5.32;;
22614;SDS011;11474;50.790;0.298;2022-11-15T12:10:40;39.03;;;5.75;;
22614;SDS011;11474;50.790;0.298;2022-11-15T12:13:13;30.10;;;5.22;;
22614;SDS011;11474;50.790;0.298;2022-11-15T12:18:12;37.88;;;6.50;;
22614;SDS011;11474;50.790;0.298;2022-11-15T12:20:40;39.55;;;5.13;;
22614;SDS011;11474;50.790;0.298;2022-11-15T12:23:24;44.25;;;6.03;;
22614;SDS011;11474;50.790;0.298;2022-11-15T12:25:55;48.97;;;6.30;;
22614;SDS011;11474;50.790;0.298;2022-11-15T12:31:10;32.28;;;6.10;;
22614;SDS011;11474;50.790;0.298;2022-11-15T12:33:41;44.70;;;6.07;;
22614;SDS011;11474;50.790;0.298;2022-11-15T12:36:12;39.70;;;5.95;;
22614;SDS011;11474;50.790;0.298;2022-11-15T12:43:49;30.67;;;4.80;;
22614;SDS011;11474;50.790;0.298;2022-11-15T12:59:52;43.80;;;9.48;;
22614;SDS011;11474;50.790;0.298;2022-11-15T13:05:25;29.02;;;5.45;;
22614;SDS011;11474;50.790;0.298;2022-11-15T13:17:50;46.53;;;8.60;;
22614;SDS011;11474;50.790;0.298;2022-11-15T13:20:25;50.80;;;9.95;;
22614;SDS011;11474;50.790;0.298;2022-11-15T13:28:07;27.90;;;5.68;;
22614;SDS011;11474;50.790;0.298;2022-11-15T13:30:35;31.55;;;5.57;;
22614;SDS011;11474;50.790;0.298;2022-11-15T13:33:09;24.65;;;4.32;;
22614;SDS011;11474;50.790;0.298;2022-11-15T13:35:39;25.67;;;5.63;;
22614;SDS011;11474;50.790;0.298;2022-11-15T13:38:06;32.53;;;6.67;;
22614;SDS011;11474;50.790;0.298;2022-11-15T13:40:36;32.78;;;5.60;;
22614;SDS011;11474;50.790;0.298;2022-11-15T13:43:25;27.73;;;5.68;;
22614;SDS011;11474;50.790;0.298;2022-11-15T13:48:31;21.27;;;4.57;;
22614;SDS011;11474;50.790;0.298;2022-11-15T13:50:58;29.85;;;4.60;;
22614;SDS011;11474;50.790;0.298;2022-11-15T13:53:25;27.02;;;4.22;;
22614;SDS011;11474;50.790;0.298;2022-11-15T13:55:58;27.08;;;5.00;;
22614;SDS011;11474;50.790;0.298;2022-11-15T13:58:25;25.27;;;4.87;;
22614;SDS011;11474;50.790;0.298;2022-11-15T14:00:58;30.40;;;5.05;;
22614;SDS011;11474;50.790;0.298;2022-11-15T14:03:25;31.75;;;5.40;;
22614;SDS011;11474;50.790;0.298;2022-11-15T14:06:08;30.93;;;5.90;;
22614;SDS011;11474;50.790;0.298;2022-11-15T14:08:40;29.05;;;4.95;;
22614;SDS011;11474;50.790;0.298;2022-11-15T14:11:07;28.77;;;4.93;;
22614;SDS011;11474;50.790;0.298;2022-11-15T14:13:33;21.10;;;3.97;;
22614;SDS011;11474;50.790;0.298;2022-11-15T14:18:43;16.83;;;3.08;;
22614;SDS011;11474;50.790;0.298;2022-11-15T14:21:09;20.58;;;3.40;;
22614;SDS011;11474;50.790;0.298;2022-11-15T14:23:35;20.02;;;3.35;;
22614;SDS011;11474;50.790;0.298;2022-11-15T14:26:02;23.33;;;3.60;;
22614;SDS011;11474;50.790;0.298;2022-11-15T14:28:32;19.42;;;4.05;;
22614;SDS011;11474;50.790;0.298;2022-11-15T14:31:04;20.15;;;3.45;;
22614;SDS011;11474;50.790;0.298;2022-11-15T14:33:33;15.15;;;2.95;;
22614;SDS011;11474;50.790;0.298;2022-11-15T14:36:04;20.63;;;3.33;;
22614;SDS011;11474;50.790;0.298;2022-11-15T14:38:30;18.15;;;2.72;;
22614;SDS011;11474;50.790;0.298;2022-11-15T14:40:56;19.48;;;3.70;;
22614;SDS011;11474;50.790;0.298;2022-11-15T14:43:23;14.75;;;2.63;;
22614;SDS011;11474;50.790;0.298;2022-11-15T14:45:49;13.63;;;2.50;;
22614;SDS011;11474;50.790;0.298;2022-11-15T14:48:15;19.42;;;2.50;;
22614;SDS011;11474;50.790;0.298;2022-11-15T14:50:44;12.60;;;2.60;;
22614;SDS011;11474;50.790;0.298;2022-11-15T14:53:17;13.00;;;2.67;;
22614;SDS011;11474;50.790;0.298;2022-11-15T14:55:45;13.50;;;3.03;;
22614;SDS011;11474;50.790;0.298;2022-11-15T14:58:11;14.20;;;2.45;;
22614;SDS011;11474;50.790;0.298;2022-11-15T15:00:38;15.37;;;3.47;;
22614;SDS011;11474;50.790;0.298;2022-11-15T15:03:05;17.38;;;4.10;;
22614;SDS011;11474;50.790;0.298;2022-11-15T15:05:33;17.70;;;5.68;;
22614;SDS011;11474;50.790;0.298;2022-11-15T15:07:59;16.83;;;3.73;;
22614;SDS011;11474;50.790;0.298;2022-11-15T15:10:27;12.82;;;2.97;;
22614;SDS011;11474;50.790;0.298;2022-11-15T15:12:55;12.43;;;3.25;;
22614;SDS011;11474;50.790;0.298;2022-11-15T15:15:24;14.52;;;2.80;;
22614;SDS011;11474;50.790;0.298;2022-11-15T15:17:50;11.68;;;3.30;;
22614;SDS011;11474;50.790;0.298;2022-11-15T15:20:16;11.23;;;2.30;;
22614;SDS011;11474;50.790;0.298;2022-11-15T15:22:43;11.02;;;2.10;;
22614;SDS011;11474;50.790;0.298;2022-11-15T15:25:20;14.80;;;2.75;;
22614;SDS011;11474;50.790;0.298;2022-11-15T15:27:46;7.65;;;2.35;;
22614;SDS011;11474;50.790;0.298;2022-11-15T15:30:12;12.48;;;2.90;;
22614;SDS011;11474;50.790;0.298;2022-11-15T15:32:38;9.70;;;2.53;;
22614;SDS011;11474;50.790;0.298;2022-11-15T15:35:04;13.77;;;3.63;;
22614;SDS011;11474;50.790;0.298;2022-11-15T15:37:31;12.25;;;2.75;;
22614;SDS011;11474;50.790;0.298;2022-11-15T15:39:58;11.98;;;2.97;;
22614;SDS011;11474;50.790;0.298;2022-11-15T15:42:24;11.88;;;2.30;;
22614;SDS011;11474;50.790;0.298;2022-11-15T15:44:50;17.52;;;3.75;;
22614;SDS011;11474;50.790;0.298;2022-11-15T15:47:18;15.48;;;2.88;;
22614;SDS011;11474;50.790;0.298;2022-11-15T15:49:45;13.65;;;3.15;;
22614;SDS011;11474;50.790;0.298;2022-11-15T15:52:11;14.63;;;3.00;;
22614;SDS011;11474;50.790;0.298;2022-11-15T15:54:38;18.98;;;3.58;;
22614;SDS011;11474;50.790;0.298;2022-11-15T15:57:05;14.05;;;3.10;;
22614;SDS011;11474;50.790;0.298;2022-11-15T15:59:31;13.75;;;2.45;;
22614;SDS011;11474;50.790;0.298;2022-11-15T16:01:57;13.20;;;2.25;;
22614;SDS011;11474;50.790;0.298;2022-11-15T16:04:23;11.57;;;2.60;;
22614;SDS011;11474;50.790;0.298;2022-11-15T16:06:49;14.43;;;2.90;;
22614;SDS011;11474;50.790;0.298;2022-11-15T16:09:17;15.13;;;2.97;;
22614;SDS011;11474;50.790;0.298;2022-11-15T16:12:04;16.15;;;3.10;;
22614;SDS011;11474;50.790;0.298;2022-11-15T16:14:31;11.80;;;2.88;;
22614;SDS011;11474;50.790;0.298;2022-11-15T16:16:57;15.68;;;3.05;;
22614;SDS011;11474;50.790;0.298;2022-11-15T16:19:23;15.07;;;2.80;;
22614;SDS011;11474;50.790;0.298;2022-11-15T16:21:49;12.73;;;2.97;;
22614;SDS011;11474;50.790;0.298;2022-11-15T16:24:17;13.30;;;2.67;;
22614;SDS011;11474;50.790;0.298;2022-11-15T16:26:43;11.20;;;2.85;;
22614;SDS011;11474;50.790;0.298;2022-11-15T16:29:10;17.90;;;5.60;;
22614;SDS011;11474;50.790;0.298;2022-11-15T16:31:36;12.68;;;2.90;;
22614;SDS011;11474;50.790;0.298;2022-11-15T16:34:02;12.00;;;3.45;;
22614;SDS011;11474;50.790;0.298;2022-11-15T16:36:29;11.23;;;2.70;;
22614;SDS011;11474;50.790;0.298;2022-11-15T16:38:56;19.65;;;4.10;;
22614;SDS011;11474;50.790;0.298;2022-11-15T16:41:22;10.43;;;2.20;;
22614;SDS011;11474;50.790;0.298;2022-11-15T16:43:49;8.55;;;2.97;;
22614;SDS011;11474;50.790;0.298;2022-11-15T16:46:19;10.60;;;2.47;;
22614;SDS011;11474;50.790;0.298;2022-11-15T16:48:45;10.80;;;2.13;;
22614;SDS011;11474;50.790;0.298;2022-11-15T16:51:11;13.25;;;2.53;;
22614;SDS011;11474;50.790;0.298;2022-11-15T16:53:38;14.10;;;2.85;;
22614;SDS011;11474;50.790;0.298;2022-11-15T16:56:12;11.02;;;2.30;;
22614;SDS011;11474;50.790;0.298;2022-11-15T16:58:40;8.98;;;2.10;;
22614;SDS011;11474;50.790;0.298;2022-11-15T17:01:09;13.05;;;2.60;;